Aviation Digital Data Service (ADDS)

Output produced by METARs form (1554 UTC 15 October 2018)
found at http://aviationweather.gov/metar/data/
 
KHDC 151535Z AUTO 18007KT 10SM BKN020 BKN031 OVC055 28/24 A3005 RMK AO2
KHDC 151515Z AUTO 16006KT 10SM SCT018 SCT026 BKN033 28/25 A3004 RMK AO2
KHDC 151455Z AUTO 15004KT 10SM SCT017 SCT028 SCT035 28/25 A3004 RMK AO2
KHDC 151449Z 1515/1612 00000KT P6SM BKN013 BKN018 BKN050 
     FM151700 12004KT P6SM VCSH BKN025 BKN070 
     FM152100 03004KT P6SM VCSH BKN040 OVC080 
     FM160400 02005KT P6SM VCSH BKN025 OVC030 
     FM160700 VRB04KT 5SM BR BKN008